Aviation Digital Data Service (ADDS)

Output produced by TAFs form (0412 UTC 02 September 2014)
found at http://aviationweather.gov/adds/tafs/
 
KTCS 012320Z 0200/0224 21007G15KT P6SM FEW100 
     FM020300 29005KT P6SM SKC 
     FM022000 23007KT P6SM FEW100